sensor_id;sensor_type;location;lat;lon;timestamp;P1;durP1;ratioP1;P2;durP2;ratioP2
19929;SDS011;10127;47.780;9.606;2022-07-23T00:00:45;18.17;;;13.30;;
19929;SDS011;10127;47.780;9.606;2022-07-23T00:03:12;16.27;;;13.05;;
19929;SDS011;10127;47.780;9.606;2022-07-23T00:05:38;15.23;;;11.65;;
19929;SDS011;10127;47.780;9.606;2022-07-23T00:08:03;15.20;;;12.70;;
19929;SDS011;10127;47.780;9.606;2022-07-23T00:10:30;19.95;;;15.27;;
19929;SDS011;10127;47.780;9.606;2022-07-23T00:12:55;23.77;;;15.65;;
19929;SDS011;10127;47.780;9.606;2022-07-23T00:15:21;19.58;;;12.63;;
19929;SDS011;10127;47.780;9.606;2022-07-23T00:17:47;22.27;;;13.85;;
19929;SDS011;10127;47.780;9.606;2022-07-23T00:20:12;17.00;;;13.35;;
19929;SDS011;10127;47.780;9.606;2022-07-23T00:22:48;24.08;;;14.38;;
19929;SDS011;10127;47.780;9.606;2022-07-23T00:25:14;12.35;;;11.00;;
19929;SDS011;10127;47.780;9.606;2022-07-23T00:27:40;15.38;;;11.15;;
19929;SDS011;10127;47.780;9.606;2022-07-23T00:30:06;15.77;;;10.55;;
19929;SDS011;10127;47.780;9.606;2022-07-23T00:32:32;15.07;;;11.45;;
19929;SDS011;10127;47.780;9.606;2022-07-23T00:34:58;15.82;;;10.23;;
19929;SDS011;10127;47.780;9.606;2022-07-23T00:37:23;15.07;;;10.40;;
19929;SDS011;10127;47.780;9.606;2022-07-23T00:39:49;11.15;;;9.18;;
19929;SDS011;10127;47.780;9.606;2022-07-23T00:42:14;12.85;;;11.00;;
19929;SDS011;10127;47.780;9.606;2022-07-23T00:44:40;13.25;;;10.43;;
19929;SDS011;10127;47.780;9.606;2022-07-23T00:47:05;14.68;;;9.73;;
19929;SDS011;10127;47.780;9.606;2022-07-23T00:49:31;14.93;;;10.13;;
19929;SDS011;10127;47.780;9.606;2022-07-23T00:51:57;10.65;;;9.30;;
19929;SDS011;10127;47.780;9.606;2022-07-23T00:54:28;10.90;;;9.02;;
19929;SDS011;10127;47.780;9.606;2022-07-23T00:56:54;13.73;;;9.13;;
19929;SDS011;10127;47.780;9.606;2022-07-23T00:59:20;13.90;;;10.30;;
19929;SDS011;10127;47.780;9.606;2022-07-23T01:01:46;15.40;;;9.80;;
19929;SDS011;10127;47.780;9.606;2022-07-23T01:04:14;10.95;;;9.57;;
19929;SDS011;10127;47.780;9.606;2022-07-23T01:06:40;14.15;;;9.57;;
19929;SDS011;10127;47.780;9.606;2022-07-23T01:09:07;12.77;;;10.55;;
19929;SDS011;10127;47.780;9.606;2022-07-23T01:11:33;14.43;;;9.85;;
19929;SDS011;10127;47.780;9.606;2022-07-23T01:14:07;13.75;;;10.65;;
19929;SDS011;10127;47.780;9.606;2022-07-23T01:16:43;11.85;;;8.18;;
19929;SDS011;10127;47.780;9.606;2022-07-23T01:19:10;12.35;;;9.00;;
19929;SDS011;10127;47.780;9.606;2022-07-23T01:21:40;11.43;;;8.07;;
19929;SDS011;10127;47.780;9.606;2022-07-23T01:24:07;11.18;;;7.22;;
19929;SDS011;10127;47.780;9.606;2022-07-23T01:26:34;9.80;;;7.03;;
19929;SDS011;10127;47.780;9.606;2022-07-23T01:29:01;11.15;;;7.78;;
19929;SDS011;10127;47.780;9.606;2022-07-23T01:31:27;9.95;;;7.90;;
19929;SDS011;10127;47.780;9.606;2022-07-23T01:33:52;9.45;;;7.47;;
19929;SDS011;10127;47.780;9.606;2022-07-23T01:36:18;9.80;;;7.53;;
19929;SDS011;10127;47.780;9.606;2022-07-23T01:38:43;9.65;;;7.68;;
19929;SDS011;10127;47.780;9.606;2022-07-23T01:41:09;8.07;;;7.07;;
19929;SDS011;10127;47.780;9.606;2022-07-23T01:43:35;16.13;;;7.50;;
19929;SDS011;10127;47.780;9.606;2022-07-23T01:46:00;9.05;;;7.80;;
19929;SDS011;10127;47.780;9.606;2022-07-23T01:48:26;10.57;;;7.25;;
19929;SDS011;10127;47.780;9.606;2022-07-23T01:50:51;9.68;;;7.28;;
19929;SDS011;10127;47.780;9.606;2022-07-23T01:53:17;9.75;;;7.88;;
19929;SDS011;10127;47.780;9.606;2022-07-23T01:55:42;9.15;;;7.57;;
19929;SDS011;10127;47.780;9.606;2022-07-23T01:58:08;10.25;;;7.35;;
19929;SDS011;10127;47.780;9.606;2022-07-23T02:00:34;8.98;;;8.07;;
19929;SDS011;10127;47.780;9.606;2022-07-23T02:03:00;9.18;;;7.70;;
19929;SDS011;10127;47.780;9.606;2022-07-23T02:05:26;9.07;;;6.88;;
19929;SDS011;10127;47.780;9.606;2022-07-23T02:07:53;7.45;;;6.75;;
19929;SDS011;10127;47.780;9.606;2022-07-23T02:10:19;12.10;;;7.93;;
19929;SDS011;10127;47.780;9.606;2022-07-23T02:12:45;9.50;;;7.68;;
19929;SDS011;10127;47.780;9.606;2022-07-23T02:15:11;11.02;;;7.85;;
19929;SDS011;10127;47.780;9.606;2022-07-23T02:17:37;12.68;;;8.07;;
19929;SDS011;10127;47.780;9.606;2022-07-23T02:20:03;10.02;;;8.05;;
19929;SDS011;10127;47.780;9.606;2022-07-23T02:22:30;15.57;;;8.20;;
19929;SDS011;10127;47.780;9.606;2022-07-23T02:24:55;16.23;;;8.13;;
19929;SDS011;10127;47.780;9.606;2022-07-23T02:27:21;10.23;;;8.10;;
19929;SDS011;10127;47.780;9.606;2022-07-23T02:29:46;9.52;;;7.82;;
19929;SDS011;10127;47.780;9.606;2022-07-23T02:32:12;8.98;;;8.05;;
19929;SDS011;10127;47.780;9.606;2022-07-23T02:34:38;9.45;;;7.50;;
19929;SDS011;10127;47.780;9.606;2022-07-23T02:37:03;15.13;;;8.27;;
19929;SDS011;10127;47.780;9.606;2022-07-23T02:39:29;10.73;;;7.80;;
19929;SDS011;10127;47.780;9.606;2022-07-23T02:41:55;9.43;;;7.97;;
19929;SDS011;10127;47.780;9.606;2022-07-23T02:44:21;13.60;;;7.93;;
19929;SDS011;10127;47.780;9.606;2022-07-23T02:46:46;14.63;;;7.60;;
19929;SDS011;10127;47.780;9.606;2022-07-23T02:49:12;10.38;;;7.60;;
19929;SDS011;10127;47.780;9.606;2022-07-23T03:12:15;8.55;;;7.55;;
19929;SDS011;10127;47.780;9.606;2022-07-23T03:14:41;10.70;;;7.10;;
19929;SDS011;10127;47.780;9.606;2022-07-23T03:17:06;9.48;;;7.72;;
19929;SDS011;10127;47.780;9.606;2022-07-23T03:19:32;9.57;;;7.65;;
19929;SDS011;10127;47.780;9.606;2022-07-23T03:21:58;9.38;;;7.57;;
19929;SDS011;10127;47.780;9.606;2022-07-23T03:24:24;11.27;;;8.20;;
19929;SDS011;10127;47.780;9.606;2022-07-23T03:27:10;10.38;;;9.20;;
19929;SDS011;10127;47.780;9.606;2022-07-23T03:29:35;12.20;;;9.40;;
19929;SDS011;10127;47.780;9.606;2022-07-23T03:32:02;10.52;;;7.88;;
19929;SDS011;10127;47.780;9.606;2022-07-23T03:34:28;9.73;;;7.70;;
19929;SDS011;10127;47.780;9.606;2022-07-23T03:36:54;11.93;;;7.35;;
19929;SDS011;10127;47.780;9.606;2022-07-23T03:39:19;14.75;;;8.32;;
19929;SDS011;10127;47.780;9.606;2022-07-23T03:41:45;17.70;;;11.88;;
19929;SDS011;10127;47.780;9.606;2022-07-23T03:44:10;10.48;;;8.98;;
19929;SDS011;10127;47.780;9.606;2022-07-23T03:46:36;10.95;;;9.05;;
19929;SDS011;10127;47.780;9.606;2022-07-23T03:49:02;11.60;;;8.32;;
19929;SDS011;10127;47.780;9.606;2022-07-23T03:51:27;11.15;;;7.65;;
19929;SDS011;10127;47.780;9.606;2022-07-23T03:53:53;10.23;;;8.70;;
19929;SDS011;10127;47.780;9.606;2022-07-23T03:56:20;11.20;;;8.85;;
19929;SDS011;10127;47.780;9.606;2022-07-23T03:58:46;9.48;;;8.20;;
19929;SDS011;10127;47.780;9.606;2022-07-23T04:01:12;9.15;;;7.75;;
19929;SDS011;10127;47.780;9.606;2022-07-23T04:03:37;11.80;;;7.95;;
19929;SDS011;10127;47.780;9.606;2022-07-23T04:06:03;12.15;;;7.95;;
19929;SDS011;10127;47.780;9.606;2022-07-23T04:08:29;13.27;;;9.65;;
19929;SDS011;10127;47.780;9.606;2022-07-23T04:10:54;12.75;;;8.77;;
19929;SDS011;10127;47.780;9.606;2022-07-23T04:13:20;15.73;;;10.23;;
19929;SDS011;10127;47.780;9.606;2022-07-23T04:15:46;12.77;;;8.50;;
19929;SDS011;10127;47.780;9.606;2022-07-23T04:18:11;9.60;;;7.93;;
19929;SDS011;10127;47.780;9.606;2022-07-23T04:20:37;11.20;;;8.00;;
19929;SDS011;10127;47.780;9.606;2022-07-23T04:23:02;10.63;;;8.18;;
19929;SDS011;10127;47.780;9.606;2022-07-23T04:25:28;9.60;;;7.55;;
19929;SDS011;10127;47.780;9.606;2022-07-23T04:27:54;10.18;;;7.97;;
19929;SDS011;10127;47.780;9.606;2022-07-23T04:30:19;9.45;;;7.20;;
19929;SDS011;10127;47.780;9.606;2022-07-23T04:32:45;9.43;;;8.00;;
19929;SDS011;10127;47.780;9.606;2022-07-23T04:35:10;8.38;;;7.38;;
19929;SDS011;10127;47.780;9.606;2022-07-23T04:37:36;12.40;;;7.30;;
19929;SDS011;10127;47.780;9.606;2022-07-23T04:40:01;10.57;;;7.43;;
19929;SDS011;10127;47.780;9.606;2022-07-23T04:42:27;15.68;;;7.15;;
19929;SDS011;10127;47.780;9.606;2022-07-23T04:44:53;9.20;;;7.47;;
19929;SDS011;10127;47.780;9.606;2022-07-23T04:47:18;9.23;;;7.22;;
19929;SDS011;10127;47.780;9.606;2022-07-23T04:49:44;10.68;;;7.05;;
19929;SDS011;10127;47.780;9.606;2022-07-23T04:52:09;10.20;;;7.63;;
19929;SDS011;10127;47.780;9.606;2022-07-23T04:54:35;11.27;;;7.25;;
19929;SDS011;10127;47.780;9.606;2022-07-23T04:57:01;13.75;;;7.57;;
19929;SDS011;10127;47.780;9.606;2022-07-23T04:59:26;12.05;;;7.05;;
19929;SDS011;10127;47.780;9.606;2022-07-23T05:01:52;14.57;;;7.22;;
19929;SDS011;10127;47.780;9.606;2022-07-23T05:04:17;9.35;;;6.95;;
19929;SDS011;10127;47.780;9.606;2022-07-23T05:06:43;12.00;;;8.52;;
19929;SDS011;10127;47.780;9.606;2022-07-23T05:09:08;14.45;;;8.38;;
19929;SDS011;10127;47.780;9.606;2022-07-23T05:11:34;13.75;;;8.45;;
19929;SDS011;10127;47.780;9.606;2022-07-23T05:14:00;16.83;;;8.57;;
19929;SDS011;10127;47.780;9.606;2022-07-23T05:16:25;19.08;;;8.77;;
19929;SDS011;10127;47.780;9.606;2022-07-23T05:18:51;14.80;;;8.63;;
19929;SDS011;10127;47.780;9.606;2022-07-23T05:21:16;16.50;;;9.02;;
19929;SDS011;10127;47.780;9.606;2022-07-23T05:23:42;19.63;;;9.00;;
19929;SDS011;10127;47.780;9.606;2022-07-23T05:26:07;22.17;;;9.07;;
19929;SDS011;10127;47.780;9.606;2022-07-23T05:28:33;17.10;;;9.50;;
19929;SDS011;10127;47.780;9.606;2022-07-23T05:30:59;14.02;;;8.15;;
19929;SDS011;10127;47.780;9.606;2022-07-23T05:33:24;12.15;;;9.30;;
19929;SDS011;10127;47.780;9.606;2022-07-23T05:35:50;9.25;;;8.27;;
19929;SDS011;10127;47.780;9.606;2022-07-23T05:38:15;12.43;;;8.60;;
19929;SDS011;10127;47.780;9.606;2022-07-23T05:40:41;12.80;;;9.23;;
19929;SDS011;10127;47.780;9.606;2022-07-23T05:43:07;16.02;;;9.95;;
19929;SDS011;10127;47.780;9.606;2022-07-23T05:45:32;12.85;;;9.52;;
19929;SDS011;10127;47.780;9.606;2022-07-23T05:47:58;16.50;;;9.07;;
19929;SDS011;10127;47.780;9.606;2022-07-23T05:50:23;16.08;;;8.85;;
19929;SDS011;10127;47.780;9.606;2022-07-23T05:52:49;17.73;;;9.80;;
19929;SDS011;10127;47.780;9.606;2022-07-23T05:55:15;12.50;;;9.45;;
19929;SDS011;10127;47.780;9.606;2022-07-23T05:57:41;10.77;;;8.68;;
19929;SDS011;10127;47.780;9.606;2022-07-23T06:00:07;13.82;;;9.15;;
19929;SDS011;10127;47.780;9.606;2022-07-23T06:02:34;13.82;;;8.57;;
19929;SDS011;10127;47.780;9.606;2022-07-23T06:04:59;15.75;;;9.73;;
19929;SDS011;10127;47.780;9.606;2022-07-23T06:07:25;17.48;;;9.70;;
19929;SDS011;10127;47.780;9.606;2022-07-23T06:09:50;12.77;;;9.50;;
19929;SDS011;10127;47.780;9.606;2022-07-23T06:12:16;10.55;;;8.73;;
19929;SDS011;10127;47.780;9.606;2022-07-23T06:14:43;20.20;;;9.10;;
19929;SDS011;10127;47.780;9.606;2022-07-23T06:17:09;18.13;;;9.80;;
19929;SDS011;10127;47.780;9.606;2022-07-23T06:19:34;14.88;;;8.40;;
19929;SDS011;10127;47.780;9.606;2022-07-23T06:22:00;12.65;;;9.00;;
19929;SDS011;10127;47.780;9.606;2022-07-23T06:24:25;11.65;;;8.38;;
19929;SDS011;10127;47.780;9.606;2022-07-23T06:26:51;16.67;;;8.98;;
19929;SDS011;10127;47.780;9.606;2022-07-23T06:29:16;15.07;;;10.40;;
19929;SDS011;10127;47.780;9.606;2022-07-23T06:31:42;10.60;;;9.32;;
19929;SDS011;10127;47.780;9.606;2022-07-23T06:34:08;14.15;;;9.48;;
19929;SDS011;10127;47.780;9.606;2022-07-23T06:36:33;13.15;;;9.25;;
19929;SDS011;10127;47.780;9.606;2022-07-23T06:38:59;11.32;;;8.30;;
19929;SDS011;10127;47.780;9.606;2022-07-23T06:41:24;10.80;;;9.13;;
19929;SDS011;10127;47.780;9.606;2022-07-23T06:43:50;14.05;;;9.15;;
19929;SDS011;10127;47.780;9.606;2022-07-23T06:46:16;12.57;;;8.85;;
19929;SDS011;10127;47.780;9.606;2022-07-23T06:48:41;13.48;;;8.38;;
19929;SDS011;10127;47.780;9.606;2022-07-23T06:51:07;10.70;;;8.57;;
19929;SDS011;10127;47.780;9.606;2022-07-23T06:53:32;11.00;;;8.57;;
19929;SDS011;10127;47.780;9.606;2022-07-23T06:55:58;10.55;;;8.40;;
19929;SDS011;10127;47.780;9.606;2022-07-23T06:58:23;12.93;;;8.57;;
19929;SDS011;10127;47.780;9.606;2022-07-23T07:00:49;14.88;;;8.63;;
19929;SDS011;10127;47.780;9.606;2022-07-23T07:03:16;10.60;;;8.73;;
19929;SDS011;10127;47.780;9.606;2022-07-23T07:05:42;15.07;;;9.07;;
19929;SDS011;10127;47.780;9.606;2022-07-23T07:08:07;14.73;;;8.93;;
19929;SDS011;10127;47.780;9.606;2022-07-23T07:10:33;13.65;;;8.63;;
19929;SDS011;10127;47.780;9.606;2022-07-23T07:12:58;10.80;;;8.23;;
19929;SDS011;10127;47.780;9.606;2022-07-23T07:15:24;10.25;;;8.13;;
19929;SDS011;10127;47.780;9.606;2022-07-23T07:17:49;9.48;;;7.97;;
19929;SDS011;10127;47.780;9.606;2022-07-23T07:20:15;9.32;;;8.13;;
19929;SDS011;10127;47.780;9.606;2022-07-23T07:22:41;13.98;;;8.18;;
19929;SDS011;10127;47.780;9.606;2022-07-23T07:25:06;9.95;;;8.05;;
19929;SDS011;10127;47.780;9.606;2022-07-23T07:27:32;15.43;;;12.05;;
19929;SDS011;10127;47.780;9.606;2022-07-23T07:29:58;12.05;;;9.15;;
19929;SDS011;10127;47.780;9.606;2022-07-23T07:32:23;8.30;;;7.50;;
19929;SDS011;10127;47.780;9.606;2022-07-23T07:34:50;9.15;;;7.57;;
19929;SDS011;10127;47.780;9.606;2022-07-23T07:37:15;12.10;;;7.75;;
19929;SDS011;10127;47.780;9.606;2022-07-23T07:39:41;11.40;;;7.57;;
19929;SDS011;10127;47.780;9.606;2022-07-23T07:42:06;9.57;;;7.47;;
19929;SDS011;10127;47.780;9.606;2022-07-23T07:44:32;9.20;;;8.30;;
19929;SDS011;10127;47.780;9.606;2022-07-23T07:46:57;10.38;;;8.15;;
19929;SDS011;10127;47.780;9.606;2022-07-23T07:49:23;9.13;;;7.85;;
19929;SDS011;10127;47.780;9.606;2022-07-23T07:51:49;10.93;;;8.18;;
19929;SDS011;10127;47.780;9.606;2022-07-23T07:54:14;9.20;;;8.10;;
19929;SDS011;10127;47.780;9.606;2022-07-23T07:56:40;12.55;;;9.13;;
19929;SDS011;10127;47.780;9.606;2022-07-23T07:59:06;11.60;;;8.50;;
19929;SDS011;10127;47.780;9.606;2022-07-23T08:01:31;11.40;;;8.60;;
19929;SDS011;10127;47.780;9.606;2022-07-23T08:03:57;10.07;;;8.65;;
19929;SDS011;10127;47.780;9.606;2022-07-23T08:06:22;14.20;;;9.18;;
19929;SDS011;10127;47.780;9.606;2022-07-23T08:08:48;10.23;;;9.13;;
19929;SDS011;10127;47.780;9.606;2022-07-23T08:11:14;12.40;;;9.80;;
19929;SDS011;10127;47.780;9.606;2022-07-23T08:13:39;14.57;;;9.40;;
19929;SDS011;10127;47.780;9.606;2022-07-23T08:16:05;17.40;;;9.32;;
19929;SDS011;10127;47.780;9.606;2022-07-23T08:18:31;15.23;;;9.68;;
19929;SDS011;10127;47.780;9.606;2022-07-23T08:20:57;10.60;;;9.35;;
19929;SDS011;10127;47.780;9.606;2022-07-23T08:23:22;9.32;;;8.38;;
19929;SDS011;10127;47.780;9.606;2022-07-23T08:25:48;12.48;;;8.93;;
19929;SDS011;10127;47.780;9.606;2022-07-23T08:28:14;11.65;;;7.75;;
19929;SDS011;10127;47.780;9.606;2022-07-23T08:30:40;11.80;;;8.55;;
19929;SDS011;10127;47.780;9.606;2022-07-23T08:33:09;9.32;;;8.15;;
19929;SDS011;10127;47.780;9.606;2022-07-23T08:35:39;10.75;;;8.18;;
19929;SDS011;10127;47.780;9.606;2022-07-23T08:38:07;11.88;;;8.00;;
19929;SDS011;10127;47.780;9.606;2022-07-23T08:40:35;11.20;;;7.53;;
19929;SDS011;10127;47.780;9.606;2022-07-23T08:43:06;9.25;;;7.00;;
19929;SDS011;10127;47.780;9.606;2022-07-23T08:45:37;10.38;;;7.88;;
19929;SDS011;10127;47.780;9.606;2022-07-23T08:48:05;11.35;;;7.65;;
19929;SDS011;10127;47.780;9.606;2022-07-23T08:50:34;10.18;;;8.35;;
19929;SDS011;10127;47.780;9.606;2022-07-23T08:53:01;10.35;;;8.00;;
19929;SDS011;10127;47.780;9.606;2022-07-23T08:55:30;12.50;;;8.02;;
19929;SDS011;10127;47.780;9.606;2022-07-23T08:57:55;10.82;;;7.85;;
19929;SDS011;10127;47.780;9.606;2022-07-23T09:00:21;11.02;;;7.47;;
19929;SDS011;10127;47.780;9.606;2022-07-23T09:02:47;9.85;;;7.82;;
19929;SDS011;10127;47.780;9.606;2022-07-23T09:05:14;10.40;;;7.35;;
19929;SDS011;10127;47.780;9.606;2022-07-23T09:15:53;10.95;;;7.93;;
19929;SDS011;10127;47.780;9.606;2022-07-23T09:18:33;9.57;;;7.90;;
19929;SDS011;10127;47.780;9.606;2022-07-23T09:21:10;10.90;;;7.55;;
19929;SDS011;10127;47.780;9.606;2022-07-23T09:23:44;9.65;;;8.13;;
19929;SDS011;10127;47.780;9.606;2022-07-23T09:26:17;9.32;;;7.13;;
19929;SDS011;10127;47.780;9.606;2022-07-23T09:36:49;9.32;;;7.55;;
19929;SDS011;10127;47.780;9.606;2022-07-23T09:39:22;10.05;;;7.80;;
19929;SDS011;10127;47.780;9.606;2022-07-23T09:41:58;9.77;;;7.20;;
19929;SDS011;10127;47.780;9.606;2022-07-23T09:44:43;8.18;;;6.88;;
19929;SDS011;10127;47.780;9.606;2022-07-23T09:47:09;11.80;;;7.35;;
19929;SDS011;10127;47.780;9.606;2022-07-23T09:49:35;11.38;;;7.40;;
19929;SDS011;10127;47.780;9.606;2022-07-23T09:52:01;10.95;;;7.45;;
19929;SDS011;10127;47.780;9.606;2022-07-23T09:54:28;9.15;;;7.38;;
19929;SDS011;10127;47.780;9.606;2022-07-23T09:56:56;9.75;;;7.78;;
19929;SDS011;10127;47.780;9.606;2022-07-23T09:59:27;10.50;;;9.10;;
19929;SDS011;10127;47.780;9.606;2022-07-23T10:01:56;16.58;;;13.88;;
19929;SDS011;10127;47.780;9.606;2022-07-23T10:04:24;23.65;;;15.63;;
19929;SDS011;10127;47.780;9.606;2022-07-23T10:06:51;15.70;;;9.27;;
19929;SDS011;10127;47.780;9.606;2022-07-23T10:09:29;11.95;;;8.85;;
19929;SDS011;10127;47.780;9.606;2022-07-23T10:11:58;9.70;;;7.88;;
19929;SDS011;10127;47.780;9.606;2022-07-23T10:14:57;9.90;;;8.32;;
19929;SDS011;10127;47.780;9.606;2022-07-23T10:17:23;10.38;;;8.43;;
19929;SDS011;10127;47.780;9.606;2022-07-23T10:19:49;11.88;;;8.75;;
19929;SDS011;10127;47.780;9.606;2022-07-23T10:22:18;9.95;;;8.95;;
19929;SDS011;10127;47.780;9.606;2022-07-23T10:24:53;12.70;;;8.40;;
19929;SDS011;10127;47.780;9.606;2022-07-23T10:31:05;10.95;;;8.52;;
19929;SDS011;10127;47.780;9.606;2022-07-23T10:33:54;10.20;;;7.80;;
19929;SDS011;10127;47.780;9.606;2022-07-23T10:36:30;12.25;;;8.27;;
19929;SDS011;10127;47.780;9.606;2022-07-23T10:39:06;14.43;;;9.00;;
19929;SDS011;10127;47.780;9.606;2022-07-23T10:41:39;13.43;;;8.07;;
19929;SDS011;10127;47.780;9.606;2022-07-23T10:44:13;9.80;;;8.18;;
19929;SDS011;10127;47.780;9.606;2022-07-23T10:46:53;10.90;;;7.78;;
19929;SDS011;10127;47.780;9.606;2022-07-23T10:49:39;11.02;;;8.48;;
19929;SDS011;10127;47.780;9.606;2022-07-23T10:57:14;9.27;;;8.10;;
19929;SDS011;10127;47.780;9.606;2022-07-23T11:02:24;9.90;;;7.38;;
19929;SDS011;10127;47.780;9.606;2022-07-23T11:04:51;9.50;;;6.85;;
19929;SDS011;10127;47.780;9.606;2022-07-23T11:07:17;8.35;;;7.43;;
19929;SDS011;10127;47.780;9.606;2022-07-23T11:09:43;10.40;;;7.35;;
19929;SDS011;10127;47.780;9.606;2022-07-23T11:15:04;9.68;;;7.60;;
19929;SDS011;10127;47.780;9.606;2022-07-23T11:18:18;8.80;;;7.28;;
19929;SDS011;10127;47.780;9.606;2022-07-23T11:20:22;10.38;;;7.80;;
19929;SDS011;10127;47.780;9.606;2022-07-23T11:22:50;8.00;;;7.07;;
19929;SDS011;10127;47.780;9.606;2022-07-23T11:27:55;8.77;;;7.25;;
19929;SDS011;10127;47.780;9.606;2022-07-23T11:35:35;8.52;;;7.47;;
19929;SDS011;10127;47.780;9.606;2022-07-23T11:38:03;10.55;;;7.57;;
19929;SDS011;10127;47.780;9.606;2022-07-23T11:40:31;8.75;;;7.25;;
19929;SDS011;10127;47.780;9.606;2022-07-23T11:42:58;9.45;;;7.38;;
19929;SDS011;10127;47.780;9.606;2022-07-23T11:45:29;9.52;;;7.60;;
19929;SDS011;10127;47.780;9.606;2022-07-23T11:48:00;10.20;;;7.40;;
19929;SDS011;10127;47.780;9.606;2022-07-23T11:50:27;8.95;;;7.07;;
19929;SDS011;10127;47.780;9.606;2022-07-23T11:52:53;9.85;;;7.35;;
19929;SDS011;10127;47.780;9.606;2022-07-23T11:55:19;21.40;;;17.05;;
19929;SDS011;10127;47.780;9.606;2022-07-23T11:57:45;14.77;;;10.98;;
19929;SDS011;10127;47.780;9.606;2022-07-23T12:02:39;8.88;;;7.07;;
19929;SDS011;10127;47.780;9.606;2022-07-23T12:05:05;8.52;;;7.22;;
19929;SDS011;10127;47.780;9.606;2022-07-23T12:07:35;8.45;;;6.97;;
19929;SDS011;10127;47.780;9.606;2022-07-23T12:10:13;8.65;;;6.60;;
19929;SDS011;10127;47.780;9.606;2022-07-23T12:12:45;11.15;;;7.03;;
19929;SDS011;10127;47.780;9.606;2022-07-23T12:15:14;8.55;;;6.40;;
19929;SDS011;10127;47.780;9.606;2022-07-23T12:17:42;7.57;;;5.70;;
19929;SDS011;10127;47.780;9.606;2022-07-23T12:20:11;11.20;;;6.82;;
19929;SDS011;10127;47.780;9.606;2022-07-23T12:22:39;8.70;;;6.20;;
19929;SDS011;10127;47.780;9.606;2022-07-23T12:25:15;8.63;;;6.70;;
19929;SDS011;10127;47.780;9.606;2022-07-23T12:27:45;10.55;;;6.85;;
19929;SDS011;10127;47.780;9.606;2022-07-23T12:30:26;9.63;;;7.15;;
19929;SDS011;10127;47.780;9.606;2022-07-23T12:32:54;8.55;;;6.88;;
19929;SDS011;10127;47.780;9.606;2022-07-23T12:35:22;10.90;;;7.15;;
19929;SDS011;10127;47.780;9.606;2022-07-23T12:37:58;9.73;;;7.32;;
19929;SDS011;10127;47.780;9.606;2022-07-23T12:40:27;11.80;;;7.65;;
19929;SDS011;10127;47.780;9.606;2022-07-23T12:48:17;15.63;;;13.20;;
19929;SDS011;10127;47.780;9.606;2022-07-23T12:50:57;10.23;;;9.13;;
19929;SDS011;10127;47.780;9.606;2022-07-23T12:55:59;9.68;;;7.30;;
19929;SDS011;10127;47.780;9.606;2022-07-23T13:01:38;8.77;;;7.15;;
19929;SDS011;10127;47.780;9.606;2022-07-23T13:04:09;9.00;;;7.95;;
19929;SDS011;10127;47.780;9.606;2022-07-23T13:06:38;8.50;;;6.90;;
19929;SDS011;10127;47.780;9.606;2022-07-23T13:09:07;8.48;;;7.38;;
19929;SDS011;10127;47.780;9.606;2022-07-23T13:11:34;10.95;;;8.07;;
19929;SDS011;10127;47.780;9.606;2022-07-23T13:14:00;8.50;;;7.45;;
19929;SDS011;10127;47.780;9.606;2022-07-23T13:16:26;8.48;;;7.25;;
19929;SDS011;10127;47.780;9.606;2022-07-23T13:18:53;8.57;;;7.60;;
19929;SDS011;10127;47.780;9.606;2022-07-23T13:21:18;10.80;;;7.60;;
19929;SDS011;10127;47.780;9.606;2022-07-23T13:23:44;8.50;;;7.15;;
19929;SDS011;10127;47.780;9.606;2022-07-23T13:26:09;12.32;;;7.82;;
19929;SDS011;10127;47.780;9.606;2022-07-23T13:28:35;8.55;;;7.63;;
19929;SDS011;10127;47.780;9.606;2022-07-23T13:31:01;10.02;;;7.18;;
19929;SDS011;10127;47.780;9.606;2022-07-23T13:33:26;13.20;;;8.18;;
19929;SDS011;10127;47.780;9.606;2022-07-23T13:35:52;10.10;;;7.00;;
19929;SDS011;10127;47.780;9.606;2022-07-23T13:38:19;10.63;;;7.15;;
19929;SDS011;10127;47.780;9.606;2022-07-23T13:40:47;10.40;;;6.68;;
19929;SDS011;10127;47.780;9.606;2022-07-23T13:43:15;10.20;;;7.72;;
19929;SDS011;10127;47.780;9.606;2022-07-23T13:45:42;11.52;;;7.75;;
19929;SDS011;10127;47.780;9.606;2022-07-23T13:48:09;10.77;;;7.50;;
19929;SDS011;10127;47.780;9.606;2022-07-23T13:50:36;8.25;;;6.50;;
19929;SDS011;10127;47.780;9.606;2022-07-23T13:53:03;7.28;;;6.55;;
19929;SDS011;10127;47.780;9.606;2022-07-23T13:55:30;8.32;;;7.03;;
19929;SDS011;10127;47.780;9.606;2022-07-23T13:57:58;9.45;;;8.10;;
19929;SDS011;10127;47.780;9.606;2022-07-23T14:00:24;9.70;;;6.63;;
19929;SDS011;10127;47.780;9.606;2022-07-23T14:02:51;9.80;;;7.72;;
19929;SDS011;10127;47.780;9.606;2022-07-23T14:05:17;8.55;;;7.53;;
19929;SDS011;10127;47.780;9.606;2022-07-23T14:07:43;9.93;;;6.72;;
19929;SDS011;10127;47.780;9.606;2022-07-23T14:10:09;10.98;;;6.88;;
19929;SDS011;10127;47.780;9.606;2022-07-23T14:12:35;12.68;;;7.22;;
19929;SDS011;10127;47.780;9.606;2022-07-23T14:15:02;9.05;;;6.97;;
19929;SDS011;10127;47.780;9.606;2022-07-23T14:17:29;8.50;;;6.95;;
19929;SDS011;10127;47.780;9.606;2022-07-23T14:19:54;9.77;;;7.57;;
19929;SDS011;10127;47.780;9.606;2022-07-23T14:22:20;9.35;;;6.72;;
19929;SDS011;10127;47.780;9.606;2022-07-23T14:24:45;10.75;;;7.43;;
19929;SDS011;10127;47.780;9.606;2022-07-23T14:27:11;12.43;;;7.55;;
19929;SDS011;10127;47.780;9.606;2022-07-23T14:29:37;11.30;;;7.13;;
19929;SDS011;10127;47.780;9.606;2022-07-23T14:32:02;10.02;;;7.68;;
19929;SDS011;10127;47.780;9.606;2022-07-23T14:34:28;12.20;;;7.03;;
19929;SDS011;10127;47.780;9.606;2022-07-23T14:36:54;10.70;;;7.40;;
19929;SDS011;10127;47.780;9.606;2022-07-23T14:39:20;7.07;;;6.38;;
19929;SDS011;10127;47.780;9.606;2022-07-23T14:41:45;8.38;;;6.97;;
19929;SDS011;10127;47.780;9.606;2022-07-23T14:44:11;9.98;;;6.68;;
19929;SDS011;10127;47.780;9.606;2022-07-23T14:46:37;9.15;;;7.32;;
19929;SDS011;10127;47.780;9.606;2022-07-23T14:49:02;9.82;;;6.35;;
19929;SDS011;10127;47.780;9.606;2022-07-23T14:51:28;7.85;;;6.43;;
19929;SDS011;10127;47.780;9.606;2022-07-23T14:53:54;8.43;;;6.65;;
19929;SDS011;10127;47.780;9.606;2022-07-23T14:56:19;7.40;;;6.65;;
19929;SDS011;10127;47.780;9.606;2022-07-23T14:58:45;8.00;;;6.88;;
19929;SDS011;10127;47.780;9.606;2022-07-23T15:01:11;9.57;;;6.80;;
19929;SDS011;10127;47.780;9.606;2022-07-23T15:03:36;9.75;;;6.30;;
19929;SDS011;10127;47.780;9.606;2022-07-23T15:06:02;7.80;;;6.47;;
19929;SDS011;10127;47.780;9.606;2022-07-23T15:08:28;6.88;;;6.05;;
19929;SDS011;10127;47.780;9.606;2022-07-23T15:10:54;7.22;;;6.45;;
19929;SDS011;10127;47.780;9.606;2022-07-23T15:13:20;7.35;;;5.85;;
19929;SDS011;10127;47.780;9.606;2022-07-23T15:15:45;7.50;;;6.40;;
19929;SDS011;10127;47.780;9.606;2022-07-23T15:18:11;7.53;;;6.53;;
19929;SDS011;10127;47.780;9.606;2022-07-23T15:20:37;7.68;;;6.22;;
19929;SDS011;10127;47.780;9.606;2022-07-23T15:23:03;8.18;;;6.72;;
19929;SDS011;10127;47.780;9.606;2022-07-23T15:25:29;9.38;;;6.85;;
19929;SDS011;10127;47.780;9.606;2022-07-23T15:27:56;7.88;;;6.60;;
19929;SDS011;10127;47.780;9.606;2022-07-23T15:30:24;12.00;;;6.35;;
19929;SDS011;10127;47.780;9.606;2022-07-23T15:32:50;8.90;;;6.78;;
19929;SDS011;10127;47.780;9.606;2022-07-23T15:35:16;11.80;;;6.57;;
19929;SDS011;10127;47.780;9.606;2022-07-23T15:37:41;7.35;;;6.68;;
19929;SDS011;10127;47.780;9.606;2022-07-23T15:40:07;7.22;;;6.35;;
19929;SDS011;10127;47.780;9.606;2022-07-23T15:42:33;11.18;;;7.00;;
19929;SDS011;10127;47.780;9.606;2022-07-23T15:45:00;11.00;;;6.65;;
19929;SDS011;10127;47.780;9.606;2022-07-23T15:47:26;7.05;;;6.20;;
19929;SDS011;10127;47.780;9.606;2022-07-23T15:49:51;6.57;;;5.97;;